Time;durP1;ratioP1;P1;durP2;ratioP2;P2;SDS_P1;SDS_P2;PMS_P1;PMS_P2;Temp;Humidity;BMP_temperature;BMP_pressure;BME280_temperature;BME280_humidity;BME280_pressure;Samples;Min_cycle;Max_cycle;Signal;HPM_P1;HPM_P2
2023/12/22 00:00:22;;;;;;;;;;;4.70;99.90;;;;;;4993286;28;19917;-77
2023/12/22 00:02:48;;;;;;;;;;;4.70;99.90;;;;;;4992818;28;19914;-77
2023/12/22 00:05:13;;;;;;;;;;;4.70;99.90;;;;;;5007386;28;19917;-76
2023/12/22 00:07:39;;;;;;;;;;;4.70;99.90;;;;;;4992716;28;20302;-76
2023/12/22 00:10:05;;;;;;;;;;;4.70;99.90;;;;;;5007682;28;20256;-76
2023/12/22 00:12:30;;;;;;;;;;;4.80;99.90;;;;;;5007746;28;19917;-76
2023/12/22 00:15:02;;;;;;;;;;;4.80;99.90;;;;;;4991821;28;19909;-75
2023/12/22 00:17:27;;;;;;;;;;;4.80;99.90;;;;;;4991823;28;20367;-76
2023/12/22 00:19:53;;;;;;;;;;;4.80;99.90;;;;;;4992253;28;20048;-77
2023/12/22 00:22:18;;;;;;;;;;;4.80;99.90;;;;;;4992012;28;19962;-76
2023/12/22 00:24:44;;;;;;;;;;;4.80;99.90;;;;;;4992264;28;19910;-76
2023/12/22 00:27:09;;;;;;;;;;;4.70;99.90;;;;;;4992564;28;19913;-76
2023/12/22 00:29:37;;;;;;;;;;;4.80;99.90;;;;;;4992686;28;20044;-76
2023/12/22 00:32:02;;;;;;;;;;;4.90;99.90;;;;;;5007308;28;19914;-77
2023/12/22 00:34:28;;;;;;;;;;;4.90;99.90;;;;;;4992274;28;20389;-76
2023/12/22 00:36:53;;;;;;;;;;;4.80;99.90;;;;;;5007266;28;19916;-76
2023/12/22 00:39:19;;;;;;;;;;;4.90;99.90;;;;;;4991785;28;19914;-76
2023/12/22 00:41:44;;;;;;;;;;;4.90;99.90;;;;;;4992017;28;20397;-76
2023/12/22 00:44:10;;;;;;;;;;;4.80;99.90;;;;;;4992221;28;19910;-76
2023/12/22 00:46:35;;;;;;;;;;;4.80;99.90;;;;;;5007477;28;20001;-76
2023/12/22 00:49:01;;;;;;;;;;;4.80;99.90;;;;;;5007779;28;19906;-76
2023/12/22 00:51:26;;;;;;;;;;;4.80;99.90;;;;;;4992188;28;20334;-76
2023/12/22 00:53:52;;;;;;;;;;;4.80;99.90;;;;;;5007074;28;19917;-76
2023/12/22 00:56:17;;;;;;;;;;;4.80;99.90;;;;;;5007878;28;19913;-76
2023/12/22 00:58:43;;;;;;;;;;;4.80;99.90;;;;;;5007566;28;19905;-76
2023/12/22 01:01:08;;;;;;;;;;;4.80;99.90;;;;;;5007929;28;19952;-76
2023/12/22 01:03:33;;;;;;;;;;;4.80;99.90;;;;;;4992300;28;19916;-77
2023/12/22 01:05:59;;;;;;;;;;;4.80;99.90;;;;;;4991592;28;19968;-76
2023/12/22 01:08:24;;;;;;;;;;;4.80;99.90;;;;;;5007803;28;20402;-76
2023/12/22 01:10:50;;;;;;;;;;;4.80;99.90;;;;;;5008189;28;19916;-76
2023/12/22 01:13:15;;;;;;;;;;;4.80;99.90;;;;;;4992853;28;20404;-77
2023/12/22 01:15:43;;;;;;;;;;;4.80;99.90;;;;;;5009381;28;19910;-78
2023/12/22 01:18:09;;;;;;;;;;;4.80;99.90;;;;;;4995462;28;20374;-78
2023/12/22 01:20:35;;;;;;;;;;;4.80;99.90;;;;;;4991912;28;19913;-77
2023/12/22 01:23:00;;;;;;;;;;;4.90;99.90;;;;;;5006498;28;19905;-77
2023/12/22 01:25:25;;;;;;;;;;;4.90;99.90;;;;;;4990718;28;20347;-76
2023/12/22 01:27:52;;;;;;;;;;;4.90;99.90;;;;;;5006287;28;19905;-76
2023/12/22 01:30:17;;;;;;;;;;;4.90;99.90;;;;;;5006211;28;19916;-76
2023/12/22 01:32:43;;;;;;;;;;;4.90;99.90;;;;;;5005973;28;19914;-76
2023/12/22 01:35:09;;;;;;;;;;;4.90;99.90;;;;;;4991155;28;20366;-76
2023/12/22 01:37:36;;;;;;;;;;;4.90;99.90;;;;;;5006269;28;19906;-76
2023/12/22 01:40:02;;;;;;;;;;;5.00;99.90;;;;;;5006431;28;19917;-77
2023/12/22 01:42:28;;;;;;;;;;;5.10;99.90;;;;;;4991345;28;19910;-77
2023/12/22 01:44:53;;;;;;;;;;;5.20;99.90;;;;;;5006271;28;19973;-76
2023/12/22 01:47:19;;;;;;;;;;;5.20;99.90;;;;;;5006161;28;19910;-76
2023/12/22 01:49:44;;;;;;;;;;;5.30;99.90;;;;;;4990704;28;19952;-76
2023/12/22 01:52:10;;;;;;;;;;;5.30;99.90;;;;;;4991015;28;19924;-76
2023/12/22 01:54:35;;;;;;;;;;;5.30;99.90;;;;;;4990937;28;19996;-76
2023/12/22 01:57:02;;;;;;;;;;;5.30;99.90;;;;;;4991163;28;19996;-76
2023/12/22 01:59:30;;;;;;;;;;;5.40;99.90;;;;;;4991225;28;19909;-77
2023/12/22 02:01:56;;;;;;;;;;;5.40;99.90;;;;;;4991529;28;19909;-77
2023/12/22 02:04:21;;;;;;;;;;;5.40;99.90;;;;;;4991403;28;20476;-76
2023/12/22 02:06:47;;;;;;;;;;;5.50;99.90;;;;;;4990870;28;20004;-77
2023/12/22 02:09:13;;;;;;;;;;;5.50;99.90;;;;;;4991313;28;19910;-77
2023/12/22 02:11:38;;;;;;;;;;;5.40;99.90;;;;;;4991034;28;19917;-76
2023/12/22 02:14:04;;;;;;;;;;;5.50;99.90;;;;;;5006326;28;19910;-76
2023/12/22 02:16:33;;;;;;;;;;;5.40;99.90;;;;;;4992471;28;20406;-77
2023/12/22 02:19:00;;;;;;;;;;;5.40;99.90;;;;;;5010017;28;20390;-77
2023/12/22 02:21:26;;;;;;;;;;;5.40;99.90;;;;;;5010286;28;19910;-76
2023/12/22 02:23:51;;;;;;;;;;;5.40;99.90;;;;;;4995533;28;19909;-77
2023/12/22 02:26:21;;;;;;;;;;;5.30;99.90;;;;;;4995616;28;20418;-77
2023/12/22 02:28:47;;;;;;;;;;;5.30;99.90;;;;;;5010023;28;20017;-76
2023/12/22 02:31:17;;;;;;;;;;;5.30;99.90;;;;;;4995067;28;19972;-77
2023/12/22 02:33:43;;;;;;;;;;;5.30;99.90;;;;;;4995248;28;19913;-77
2023/12/22 02:36:09;;;;;;;;;;;5.30;99.90;;;;;;4995082;28;19906;-76
2023/12/22 02:38:36;;;;;;;;;;;5.20;99.90;;;;;;4995238;28;19906;-76
2023/12/22 02:41:02;;;;;;;;;;;5.20;99.90;;;;;;4995815;28;19996;-76
2023/12/22 02:43:28;;;;;;;;;;;5.20;99.90;;;;;;5009058;28;19948;-77
2023/12/22 02:45:53;;;;;;;;;;;5.10;99.90;;;;;;4994537;28;19909;-77
2023/12/22 02:48:19;;;;;;;;;;;5.10;99.90;;;;;;5009826;28;19996;-77
2023/12/22 02:50:44;;;;;;;;;;;5.10;99.90;;;;;;4995021;28;20389;-76
2023/12/22 02:53:10;;;;;;;;;;;5.10;99.90;;;;;;4994757;28;19917;-77
2023/12/22 02:55:35;;;;;;;;;;;5.10;99.90;;;;;;5010174;28;19960;-76
2023/12/22 02:58:01;;;;;;;;;;;5.10;99.90;;;;;;4995136;28;20442;-76
2023/12/22 03:00:26;;;;;;;;;;;5.20;99.90;;;;;;5009837;28;19906;-77
2023/12/22 03:02:52;;;;;;;;;;;5.10;99.90;;;;;;4995111;28;19910;-77
2023/12/22 03:05:17;;;;;;;;;;;5.30;99.90;;;;;;5010210;28;20025;-77
2023/12/22 03:07:43;;;;;;;;;;;5.20;99.90;;;;;;4994877;28;20075;-77
2023/12/22 03:10:08;;;;;;;;;;;5.30;99.90;;;;;;5010386;28;20004;-77
2023/12/22 03:12:34;;;;;;;;;;;5.20;99.90;;;;;;4995156;28;20008;-77
2023/12/22 03:14:59;;;;;;;;;;;5.20;99.90;;;;;;4994776;28;19909;-77
2023/12/22 03:17:25;;;;;;;;;;;5.20;99.90;;;;;;4995197;28;20492;-76
2023/12/22 03:19:50;;;;;;;;;;;5.20;99.90;;;;;;4994748;28;19916;-76
2023/12/22 03:22:16;;;;;;;;;;;5.20;99.90;;;;;;4994760;28;19941;-77
2023/12/22 03:24:43;;;;;;;;;;;5.20;99.90;;;;;;5009546;28;19916;-76
2023/12/22 03:27:08;;;;;;;;;;;5.20;99.90;;;;;;4994271;28;19933;-76
2023/12/22 03:29:34;;;;;;;;;;;5.20;99.90;;;;;;4994754;28;20287;-77
2023/12/22 03:31:59;;;;;;;;;;;5.20;99.90;;;;;;4995927;28;19925;-77
2023/12/22 03:34:25;;;;;;;;;;;5.20;99.90;;;;;;4993119;28;20397;-77
2023/12/22 03:36:50;;;;;;;;;;;5.10;99.90;;;;;;5008047;28;19956;-77
2023/12/22 03:39:16;;;;;;;;;;;5.10;99.90;;;;;;4992786;28;20000;-77
2023/12/22 03:41:42;;;;;;;;;;;5.00;99.90;;;;;;5008046;28;19918;-76
2023/12/22 03:44:07;;;;;;;;;;;5.10;99.90;;;;;;4992787;28;20379;-77
2023/12/22 03:46:32;;;;;;;;;;;5.10;99.90;;;;;;5007657;28;19910;-76
2023/12/22 03:48:58;;;;;;;;;;;5.10;99.90;;;;;;5007952;28;19957;-77
2023/12/22 03:51:23;;;;;;;;;;;5.20;99.90;;;;;;4992543;28;19955;-77
2023/12/22 03:53:49;;;;;;;;;;;5.20;99.90;;;;;;4992488;28;19909;-76
2023/12/22 03:56:14;;;;;;;;;;;5.20;99.90;;;;;;5007985;28;20008;-76
2023/12/22 03:58:40;;;;;;;;;;;5.30;99.90;;;;;;4993080;28;19909;-77
2023/12/22 04:01:07;;;;;;;;;;;5.20;99.90;;;;;;4992584;28;20048;-76
2023/12/22 04:03:33;;;;;;;;;;;5.20;99.90;;;;;;5007697;28;19916;-77
2023/12/22 04:06:01;;;;;;;;;;;5.10;99.90;;;;;;4992628;28;20008;-76
2023/12/22 04:08:27;;;;;;;;;;;5.10;99.90;;;;;;4992806;28;19956;-76
2023/12/22 04:10:52;;;;;;;;;;;5.10;99.90;;;;;;5007400;28;19910;-76
2023/12/22 04:13:18;;;;;;;;;;;5.00;99.90;;;;;;5006998;28;19921;-77
2023/12/22 04:15:44;;;;;;;;;;;5.00;99.90;;;;;;4991093;28;19909;-77
2023/12/22 04:18:09;;;;;;;;;;;5.00;99.90;;;;;;4991002;28;19909;-77
2023/12/22 04:20:35;;;;;;;;;;;4.90;99.90;;;;;;5006073;28;19910;-76
2023/12/22 04:23:00;;;;;;;;;;;4.90;99.90;;;;;;4992254;28;20573;-76
2023/12/22 04:25:26;;;;;;;;;;;4.90;99.90;;;;;;4992021;28;19906;-76
2023/12/22 04:27:52;;;;;;;;;;;4.90;99.90;;;;;;4992450;28;20437;-76
2023/12/22 04:30:17;;;;;;;;;;;4.90;99.90;;;;;;4992253;28;20369;-76
2023/12/22 04:32:43;;;;;;;;;;;4.90;99.90;;;;;;5007171;28;19914;-77
2023/12/22 04:35:08;;;;;;;;;;;4.90;99.90;;;;;;4992235;28;19956;-76
2023/12/22 04:37:34;;;;;;;;;;;4.80;99.90;;;;;;5006329;28;19905;-76
2023/12/22 04:39:59;;;;;;;;;;;4.80;99.90;;;;;;4991953;28;19909;-76
2023/12/22 04:42:25;;;;;;;;;;;4.70;99.90;;;;;;4993361;28;19951;-77
2023/12/22 04:44:51;;;;;;;;;;;4.70;99.90;;;;;;5007041;28;20367;-76
2023/12/22 04:47:16;;;;;;;;;;;4.70;99.90;;;;;;4992573;28;19941;-77
2023/12/22 04:49:42;;;;;;;;;;;4.80;99.90;;;;;;4993259;28;19916;-77
2023/12/22 04:52:07;;;;;;;;;;;4.80;99.90;;;;;;5007080;28;19913;-76
2023/12/22 04:54:33;;;;;;;;;;;5.00;99.90;;;;;;5007643;28;19910;-77
2023/12/22 04:56:58;;;;;;;;;;;5.00;99.90;;;;;;5007475;28;19906;-76
2023/12/22 04:59:24;;;;;;;;;;;4.90;99.90;;;;;;4992392;28;19913;-76
2023/12/22 05:01:50;;;;;;;;;;;4.80;99.90;;;;;;4992449;28;20298;-76
2023/12/22 05:04:17;;;;;;;;;;;4.90;99.90;;;;;;4992355;28;20561;-76
2023/12/22 05:06:42;;;;;;;;;;;4.90;99.90;;;;;;5007706;28;19910;-76
2023/12/22 05:09:08;;;;;;;;;;;4.80;99.90;;;;;;4991684;28;20344;-75
2023/12/22 05:11:34;;;;;;;;;;;4.80;99.90;;;;;;5007504;28;19917;-76
2023/12/22 05:13:59;;;;;;;;;;;4.70;99.90;;;;;;5007702;28;19981;-76
2023/12/22 05:16:28;;;;;;;;;;;4.60;99.90;;;;;;5007169;28;19930;-77
2023/12/22 05:18:53;;;;;;;;;;;4.60;99.90;;;;;;4992610;28;19944;-76
2023/12/22 05:21:19;;;;;;;;;;;4.50;99.90;;;;;;4992659;28;19960;-77
2023/12/22 05:23:44;;;;;;;;;;;4.50;99.90;;;;;;5007917;28;20389;-77
2023/12/22 05:26:10;;;;;;;;;;;4.50;99.90;;;;;;5007353;28;19910;-76
2023/12/22 05:28:35;;;;;;;;;;;4.50;99.90;;;;;;5007000;28;19906;-76
2023/12/22 05:31:01;;;;;;;;;;;4.40;99.90;;;;;;5006530;28;19979;-76
2023/12/22 05:33:26;;;;;;;;;;;4.40;99.90;;;;;;5007076;28;19960;-76
2023/12/22 05:35:52;;;;;;;;;;;4.50;99.90;;;;;;5007202;28;20008;-76
2023/12/22 05:38:17;;;;;;;;;;;4.50;99.90;;;;;;4992984;28;19906;-77
2023/12/22 05:40:43;;;;;;;;;;;4.50;99.90;;;;;;4993322;28;20362;-76
2023/12/22 05:43:08;;;;;;;;;;;4.50;99.90;;;;;;5009255;28;19914;-76
2023/12/22 05:45:34;;;;;;;;;;;4.50;99.90;;;;;;4991250;28;19905;-76
2023/12/22 05:47:59;;;;;;;;;;;4.60;99.90;;;;;;5005872;28;19906;-76
2023/12/22 05:50:26;;;;;;;;;;;4.60;99.90;;;;;;4991110;28;20385;-76
2023/12/22 05:52:51;;;;;;;;;;;4.50;99.90;;;;;;5009265;28;20286;-77
2023/12/22 05:55:17;;;;;;;;;;;4.50;99.90;;;;;;4994675;28;19917;-76
2023/12/22 05:57:42;;;;;;;;;;;4.60;99.90;;;;;;5009617;28;19905;-76
2023/12/22 06:00:09;;;;;;;;;;;4.50;99.90;;;;;;4994613;28;20382;-76
2023/12/22 06:02:35;;;;;;;;;;;4.50;99.90;;;;;;4994829;28;20032;-76
2023/12/22 06:05:01;;;;;;;;;;;4.50;99.90;;;;;;4994733;28;20035;-76
2023/12/22 06:07:26;;;;;;;;;;;4.40;99.90;;;;;;5010034;28;20375;-76
2023/12/22 06:09:52;;;;;;;;;;;4.40;99.90;;;;;;4995024;28;19909;-76
2023/12/22 06:12:17;;;;;;;;;;;4.40;99.90;;;;;;5009657;28;19947;-76
2023/12/22 06:14:43;;;;;;;;;;;4.40;99.90;;;;;;5010014;28;19910;-76
2023/12/22 06:17:08;;;;;;;;;;;4.40;99.90;;;;;;5009757;28;19914;-76
2023/12/22 06:19:37;;;;;;;;;;;4.60;99.90;;;;;;5009509;28;19910;-76
2023/12/22 06:22:03;;;;;;;;;;;4.50;99.90;;;;;;4994083;28;19957;-75
2023/12/22 06:24:28;;;;;;;;;;;4.50;99.90;;;;;;5009782;28;19949;-76
2023/12/22 06:26:54;;;;;;;;;;;4.50;99.90;;;;;;5009907;28;19964;-77
2023/12/22 06:29:19;;;;;;;;;;;4.50;99.90;;;;;;5009780;28;19984;-76
2023/12/22 06:31:46;;;;;;;;;;;4.50;99.90;;;;;;4994419;28;19913;-76
2023/12/22 06:34:11;;;;;;;;;;;4.40;99.90;;;;;;5009792;28;20536;-77
2023/12/22 06:36:37;;;;;;;;;;;4.40;99.90;;;;;;4994473;28;20012;-76
2023/12/22 06:39:02;;;;;;;;;;;4.40;99.90;;;;;;5009532;28;19909;-76
2023/12/22 06:41:29;;;;;;;;;;;4.40;99.90;;;;;;4994938;28;19913;-76
2023/12/22 06:43:55;;;;;;;;;;;4.40;99.90;;;;;;5009631;28;19909;-76
2023/12/22 06:46:22;;;;;;;;;;;4.40;99.90;;;;;;5009878;28;19913;-76
2023/12/22 06:48:48;;;;;;;;;;;4.30;99.90;;;;;;5009489;28;19906;-76
2023/12/22 06:51:34;;;;;;;;;;;4.50;99.90;;;;;;4994378;28;19910;-77
2023/12/22 06:54:00;;;;;;;;;;;4.50;99.90;;;;;;5008811;28;19913;-76
2023/12/22 06:56:26;;;;;;;;;;;4.50;99.90;;;;;;5009386;28;20029;-76
2023/12/22 06:58:53;;;;;;;;;;;4.60;99.90;;;;;;5009410;28;20394;-77
2023/12/22 07:01:20;;;;;;;;;;;4.60;99.90;;;;;;5009811;28;19971;-76
2023/12/22 07:03:49;;;;;;;;;;;4.60;99.90;;;;;;5008319;28;19910;-77
2023/12/22 07:06:20;;;;;;;;;;;4.70;99.90;;;;;;5009328;28;19918;-76
2023/12/22 07:08:56;;;;;;;;;;;4.80;99.90;;;;;;5009380;28;20395;-76
2023/12/22 07:11:21;;;;;;;;;;;4.90;99.90;;;;;;5009614;28;19948;-76
2023/12/22 07:13:47;;;;;;;;;;;4.90;99.90;;;;;;4993479;28;20342;-76
2023/12/22 07:16:12;;;;;;;;;;;4.90;99.90;;;;;;5008520;28;19916;-75
2023/12/22 07:18:38;;;;;;;;;;;5.00;99.90;;;;;;5009636;28;19984;-77
2023/12/22 07:21:03;;;;;;;;;;;5.10;99.90;;;;;;4993787;28;19910;-76
2023/12/22 07:23:29;;;;;;;;;;;5.40;99.90;;;;;;5008097;28;19906;-76
2023/12/22 07:25:55;;;;;;;;;;;5.50;99.90;;;;;;5008962;28;20310;-76
2023/12/22 07:28:20;;;;;;;;;;;5.50;99.90;;;;;;4993640;28;20341;-76
2023/12/22 07:30:46;;;;;;;;;;;5.60;99.90;;;;;;4994798;28;19910;-76
2023/12/22 07:33:11;;;;;;;;;;;5.60;99.90;;;;;;5009251;28;20194;-76
2023/12/22 07:35:36;;;;;;;;;;;5.70;99.90;;;;;;5008231;28;19916;-75
2023/12/22 07:38:05;;;;;;;;;;;5.80;99.90;;;;;;5008279;28;19932;-75
2023/12/22 07:40:30;;;;;;;;;;;5.90;99.90;;;;;;4992906;28;19910;-75
2023/12/22 07:42:57;;;;;;;;;;;5.90;99.90;;;;;;4993022;28;20275;-76
2023/12/22 07:45:22;;;;;;;;;;;6.00;99.90;;;;;;5006724;28;19952;-76
2023/12/22 07:47:48;;;;;;;;;;;6.10;99.90;;;;;;5008798;28;19940;-76
2023/12/22 07:50:13;;;;;;;;;;;6.30;99.90;;;;;;4993706;28;20366;-76
2023/12/22 07:52:39;;;;;;;;;;;6.60;99.90;;;;;;4994511;28;19921;-77
2023/12/22 07:55:10;;;;;;;;;;;6.60;99.90;;;;;;4993067;28;19913;-76
2023/12/22 07:57:36;;;;;;;;;;;6.70;99.90;;;;;;5006993;28;19910;-76
2023/12/22 08:00:02;;;;;;;;;;;6.50;99.90;;;;;;5006899;28;19963;-75
2023/12/22 08:02:28;;;;;;;;;;;6.60;99.90;;;;;;5007098;28;19906;-76
2023/12/22 08:04:53;;;;;;;;;;;6.60;99.90;;;;;;5006977;28;19924;-76
2023/12/22 08:07:19;;;;;;;;;;;6.70;99.90;;;;;;4991881;28;19913;-76
2023/12/22 08:09:44;;;;;;;;;;;6.90;99.90;;;;;;4991732;28;19973;-76
2023/12/22 08:12:10;;;;;;;;;;;7.10;99.90;;;;;;5006794;28;19983;-75
2023/12/22 08:14:35;;;;;;;;;;;7.30;99.90;;;;;;5006633;28;20001;-75
2023/12/22 08:17:01;;;;;;;;;;;7.30;99.90;;;;;;4991031;28;20000;-76
2023/12/22 08:19:26;;;;;;;;;;;7.40;99.90;;;;;;4991298;28;19959;-76
2023/12/22 08:21:52;;;;;;;;;;;7.40;99.90;;;;;;4991605;28;20294;-75
2023/12/22 08:24:18;;;;;;;;;;;7.30;99.90;;;;;;4991992;28;19909;-77
2023/12/22 08:26:43;;;;;;;;;;;7.30;99.90;;;;;;5006839;28;19917;-76
2023/12/22 08:29:09;;;;;;;;;;;7.40;99.90;;;;;;4990545;28;20286;-76
2023/12/22 08:31:34;;;;;;;;;;;7.50;99.90;;;;;;5006246;28;19914;-77
2023/12/22 08:34:00;;;;;;;;;;;7.50;99.90;;;;;;5006799;28;19905;-76
2023/12/22 08:36:25;;;;;;;;;;;7.40;99.90;;;;;;4991496;28;20366;-76
2023/12/22 08:38:51;;;;;;;;;;;7.20;99.90;;;;;;4991331;28;19906;-76
2023/12/22 08:41:16;;;;;;;;;;;7.00;99.90;;;;;;4991708;28;19906;-76
2023/12/22 08:43:42;;;;;;;;;;;6.90;99.90;;;;;;5006660;28;19906;-76
2023/12/22 08:46:09;;;;;;;;;;;6.80;99.90;;;;;;4991717;28;19962;-77
2023/12/22 08:48:35;;;;;;;;;;;6.70;99.90;;;;;;4991804;28;19917;-76
2023/12/22 08:51:00;;;;;;;;;;;6.60;99.90;;;;;;5006349;28;19909;-76
2023/12/22 08:53:29;;;;;;;;;;;6.60;99.90;;;;;;4991258;28;20383;-76
2023/12/22 08:55:56;;;;;;;;;;;6.60;99.90;;;;;;4991560;28;19916;-75
2023/12/22 08:58:22;;;;;;;;;;;6.70;99.90;;;;;;5006460;28;19910;-77
2023/12/22 09:00:47;;;;;;;;;;;6.70;99.90;;;;;;5006594;28;19906;-75
2023/12/22 09:03:13;;;;;;;;;;;6.70;99.90;;;;;;5006178;28;19996;-77
2023/12/22 09:05:39;;;;;;;;;;;6.70;99.90;;;;;;4991215;28;19925;-76
2023/12/22 09:08:05;;;;;;;;;;;6.60;99.90;;;;;;5006793;28;19937;-76
2023/12/22 09:10:32;;;;;;;;;;;6.60;99.90;;;;;;4991211;28;19909;-76
2023/12/22 09:12:58;;;;;;;;;;;6.70;99.90;;;;;;5006168;28;19917;-77
2023/12/22 09:15:23;;;;;;;;;;;6.70;99.90;;;;;;5006482;28;19960;-76
2023/12/22 09:17:51;;;;;;;;;;;6.80;99.90;;;;;;4991170;28;19910;-76
2023/12/22 09:20:17;;;;;;;;;;;6.70;99.90;;;;;;4991351;28;19935;-76
2023/12/22 09:22:42;;;;;;;;;;;6.80;99.90;;;;;;5006518;28;19960;-76
2023/12/22 09:25:08;;;;;;;;;;;6.70;99.90;;;;;;4991298;28;19909;-76
2023/12/22 09:27:34;;;;;;;;;;;6.80;99.90;;;;;;4994074;28;19910;-76
2023/12/22 09:29:59;;;;;;;;;;;6.80;99.90;;;;;;4994970;28;19956;-76
2023/12/22 09:32:26;;;;;;;;;;;6.80;99.90;;;;;;4995693;28;19918;-75
2023/12/22 09:34:52;;;;;;;;;;;6.80;99.90;;;;;;5010375;28;19910;-76
2023/12/22 09:37:17;;;;;;;;;;;6.90;99.90;;;;;;4995165;28;19913;-76
2023/12/22 09:39:43;;;;;;;;;;;7.00;99.90;;;;;;4995586;28;19952;-76
2023/12/22 09:42:08;;;;;;;;;;;7.10;99.90;;;;;;5010394;28;19957;-76
2023/12/22 09:44:35;;;;;;;;;;;7.10;99.90;;;;;;4994877;28;19964;-76
2023/12/22 09:47:03;;;;;;;;;;;7.00;99.80;;;;;;4994864;28;19910;-77
2023/12/22 09:49:29;;;;;;;;;;;7.00;99.90;;;;;;4994753;28;19932;-77
2023/12/22 09:51:56;;;;;;;;;;;7.00;99.90;;;;;;5010439;28;20367;-76
2023/12/22 09:54:22;;;;;;;;;;;7.00;99.90;;;;;;5010498;28;19913;-77
2023/12/22 09:56:50;;;;;;;;;;;7.00;99.90;;;;;;5010285;28;20279;-76
2023/12/22 09:59:17;;;;;;;;;;;7.10;99.90;;;;;;4997051;28;20004;-77
2023/12/22 10:01:45;;;;;;;;;;;7.10;99.90;;;;;;4995881;28;19960;-77
2023/12/22 10:04:12;;;;;;;;;;;7.10;99.90;;;;;;5009385;28;19920;-76
2023/12/22 10:06:37;;;;;;;;;;;7.20;98.60;;;;;;4994450;28;19914;-77
2023/12/22 10:09:05;;;;;;;;;;;7.10;98.90;;;;;;5009794;28;19910;-76
2023/12/22 10:11:32;;;;;;;;;;;7.10;99.70;;;;;;4993958;28;20374;-76
2023/12/22 10:13:59;;;;;;;;;;;7.10;99.90;;;;;;5009146;28;19913;-76
2023/12/22 10:16:24;;;;;;;;;;;7.10;99.90;;;;;;5009291;28;19912;-76
2023/12/22 10:18:50;;;;;;;;;;;7.30;99.90;;;;;;5009389;28;19913;-76
2023/12/22 10:21:16;;;;;;;;;;;7.50;99.40;;;;;;5009348;28;19933;-75
2023/12/22 10:23:41;;;;;;;;;;;7.60;98.10;;;;;;5008750;28;19912;-76
2023/12/22 10:26:08;;;;;;;;;;;7.70;97.60;;;;;;4994227;28;19913;-76
2023/12/22 10:28:33;;;;;;;;;;;7.80;97.10;;;;;;5009195;28;20286;-76
2023/12/22 10:31:06;;;;;;;;;;;7.80;98.50;;;;;;4994194;28;19913;-76
2023/12/22 10:33:32;;;;;;;;;;;7.80;98.50;;;;;;4994001;28;19967;-76
2023/12/22 10:35:59;;;;;;;;;;;7.70;99.50;;;;;;4993761;28;19909;-76
2023/12/22 10:38:25;;;;;;;;;;;7.60;99.90;;;;;;5008285;28;19910;-75
2023/12/22 10:40:50;;;;;;;;;;;7.50;99.90;;;;;;4993945;28;19916;-76
2023/12/22 10:43:16;;;;;;;;;;;7.40;99.90;;;;;;5008957;28;19937;-76
2023/12/22 10:45:42;;;;;;;;;;;7.30;99.90;;;;;;5008994;28;19913;-76
2023/12/22 10:48:08;;;;;;;;;;;7.00;99.90;;;;;;5008063;28;19914;-75
2023/12/22 10:50:33;;;;;;;;;;;7.10;99.90;;;;;;4993046;28;20408;-75
2023/12/22 10:53:01;;;;;;;;;;;7.10;99.90;;;;;;4993467;28;19972;-75
2023/12/22 10:55:26;;;;;;;;;;;7.30;99.90;;;;;;5008683;28;19910;-75
2023/12/22 10:57:53;;;;;;;;;;;7.40;99.90;;;;;;4993606;28;19916;-77
2023/12/22 11:00:20;;;;;;;;;;;7.50;99.90;;;;;;5008552;28;19910;-76
2023/12/22 11:02:48;;;;;;;;;;;7.60;99.90;;;;;;4987804;28;19906;-75
2023/12/22 11:05:16;;;;;;;;;;;7.50;99.90;;;;;;5007874;28;20429;-76
2023/12/22 11:07:45;;;;;;;;;;;7.60;99.90;;;;;;4993643;28;19906;-76
2023/12/22 11:10:12;;;;;;;;;;;7.60;99.90;;;;;;4993646;28;19910;-78
2023/12/22 11:12:38;;;;;;;;;;;7.50;99.90;;;;;;5008687;28;20326;-76
2023/12/22 11:15:06;;;;;;;;;;;7.60;99.90;;;;;;5008134;28;19909;-75
2023/12/22 11:17:39;;;;;;;;;;;7.80;99.90;;;;;;4992830;28;20256;-75
2023/12/22 11:20:06;;;;;;;;;;;7.80;99.90;;;;;;5007775;28;19976;-75
2023/12/22 11:22:32;;;;;;;;;;;7.70;99.90;;;;;;4993146;28;19931;-76
2023/12/22 11:24:59;;;;;;;;;;;7.60;99.90;;;;;;4993662;28;19906;-76
2023/12/22 11:27:25;;;;;;;;;;;7.60;99.90;;;;;;4993379;28;19972;-76
2023/12/22 11:29:51;;;;;;;;;;;7.70;99.90;;;;;;4993085;28;19910;-76
2023/12/22 11:32:17;;;;;;;;;;;7.80;99.90;;;;;;5007937;28;19956;-76
2023/12/22 11:34:47;;;;;;;;;;;7.70;99.90;;;;;;4992522;28;20033;-76
2023/12/22 11:37:16;;;;;;;;;;;7.70;99.90;;;;;;4992838;28;20302;-76
2023/12/22 11:39:41;;;;;;;;;;;7.70;99.90;;;;;;4992640;28;19914;-76
2023/12/22 11:42:08;;;;;;;;;;;7.80;99.90;;;;;;5007738;28;19918;-75
2023/12/22 11:44:35;;;;;;;;;;;8.00;99.60;;;;;;5007987;28;20353;-76
2023/12/22 11:47:07;;;;;;;;;;;7.90;99.90;;;;;;5007791;28;19910;-75
2023/12/22 11:49:34;;;;;;;;;;;7.70;99.90;;;;;;5007786;28;20390;-76
2023/12/22 11:52:09;;;;;;;;;;;7.20;99.90;;;;;;5008612;28;20561;-76
2023/12/22 11:54:43;;;;;;;;;;;6.60;99.90;;;;;;5009293;28;19910;-76
2023/12/22 11:57:31;;;;;;;;;;;6.00;99.90;;;;;;4992726;28;19922;-75
2023/12/22 11:59:58;;;;;;;;;;;5.60;99.90;;;;;;4993505;28;19906;-76
2023/12/22 12:02:23;;;;;;;;;;;5.40;99.90;;;;;;4993385;28;19910;-75
2023/12/22 12:04:52;;;;;;;;;;;5.20;99.90;;;;;;5002953;28;20405;-76
2023/12/22 12:07:37;;;;;;;;;;;5.10;99.90;;;;;;4993996;28;19933;-77
2023/12/22 12:10:03;;;;;;;;;;;5.00;99.90;;;;;;5011453;28;19905;-76
2023/12/22 12:12:31;;;;;;;;;;;5.00;99.90;;;;;;5008599;28;19971;-75
2023/12/22 12:14:58;;;;;;;;;;;4.90;99.90;;;;;;4992102;28;19905;-75
2023/12/22 12:17:23;;;;;;;;;;;4.90;99.90;;;;;;4991622;28;19906;-75
2023/12/22 12:19:51;;;;;;;;;;;4.90;99.90;;;;;;4993120;28;20271;-76
2023/12/22 12:22:16;;;;;;;;;;;4.90;99.90;;;;;;4993289;28;19909;-76
2023/12/22 12:24:42;;;;;;;;;;;4.90;99.90;;;;;;4992999;28;20294;-77
2023/12/22 12:27:08;;;;;;;;;;;4.90;99.90;;;;;;5008231;28;20367;-76
2023/12/22 12:29:34;;;;;;;;;;;4.90;99.90;;;;;;5008401;28;19910;-76
2023/12/22 12:32:02;;;;;;;;;;;5.00;99.90;;;;;;4992839;28;19918;-75
2023/12/22 12:34:28;;;;;;;;;;;5.10;99.90;;;;;;5005864;28;19928;-75
2023/12/22 12:36:54;;;;;;;;;;;5.10;99.90;;;;;;4991659;28;19906;-76
2023/12/22 12:39:22;;;;;;;;;;;5.20;99.90;;;;;;4991260;28;20330;-74
2023/12/22 12:41:52;;;;;;;;;;;5.30;99.90;;;;;;4990858;28;19905;-75
2023/12/22 12:44:18;;;;;;;;;;;5.40;99.90;;;;;;4991279;28;19909;-76
2023/12/22 12:46:43;;;;;;;;;;;5.50;99.90;;;;;;4991379;28;19909;-75
2023/12/22 12:49:14;;;;;;;;;;;5.50;99.90;;;;;;5006747;28;19914;-75
2023/12/22 12:51:41;;;;;;;;;;;5.50;99.90;;;;;;4991908;28;19914;-76
2023/12/22 12:54:07;;;;;;;;;;;5.50;99.90;;;;;;4992253;28;19909;-75
2023/12/22 12:56:36;;;;;;;;;;;5.50;99.90;;;;;;4992202;28;19910;-75
2023/12/22 12:59:06;;;;;;;;;;;5.60;99.90;;;;;;4992474;28;20282;-75
2023/12/22 13:01:32;;;;;;;;;;;5.60;99.90;;;;;;4992287;28;19905;-75
2023/12/22 13:03:58;;;;;;;;;;;5.70;99.90;;;;;;4990542;28;19905;-74
2023/12/22 13:06:23;;;;;;;;;;;5.80;99.90;;;;;;4991529;28;19924;-75
2023/12/22 13:08:50;;;;;;;;;;;5.80;99.90;;;;;;4991729;28;20025;-75
2023/12/22 13:11:19;;;;;;;;;;;5.80;99.90;;;;;;4991654;28;20393;-76
2023/12/22 13:13:45;;;;;;;;;;;5.90;99.90;;;;;;5006510;28;19921;-76
2023/12/22 13:16:11;;;;;;;;;;;6.00;99.90;;;;;;4990954;28;19906;-75
2023/12/22 13:18:36;;;;;;;;;;;6.00;99.90;;;;;;4990990;28;19941;-75
2023/12/22 13:21:03;;;;;;;;;;;6.00;99.90;;;;;;4990397;28;19905;-75
2023/12/22 13:23:28;;;;;;;;;;;6.00;99.90;;;;;;5005713;28;20374;-75
2023/12/22 13:25:54;;;;;;;;;;;6.00;99.90;;;;;;4990529;28;19943;-75
2023/12/22 13:28:27;;;;;;;;;;;6.00;99.90;;;;;;4990329;28;19956;-74
2023/12/22 13:30:52;;;;;;;;;;;6.00;99.90;;;;;;4991292;28;19956;-74
2023/12/22 13:33:18;;;;;;;;;;;6.10;99.90;;;;;;5004632;28;19960;-76
2023/12/22 13:35:43;;;;;;;;;;;6.00;99.90;;;;;;5004812;28;19910;-76
2023/12/22 13:38:09;;;;;;;;;;;5.90;99.90;;;;;;5005026;28;20290;-75
2023/12/22 13:40:35;;;;;;;;;;;5.70;99.90;;;;;;5006621;28;19905;-75
2023/12/22 13:43:04;;;;;;;;;;;5.30;99.90;;;;;;5006058;28;19910;-75
2023/12/22 13:45:30;;;;;;;;;;;5.10;99.90;;;;;;5006264;28;20298;-75
2023/12/22 13:47:56;;;;;;;;;;;5.00;99.90;;;;;;4990969;28;19909;-76
2023/12/22 13:50:25;;;;;;;;;;;4.90;99.90;;;;;;4991463;28;19909;-75
2023/12/22 13:52:51;;;;;;;;;;;4.90;99.90;;;;;;5005847;28;19924;-75
2023/12/22 13:55:17;;;;;;;;;;;5.00;99.90;;;;;;5006915;28;19964;-75
2023/12/22 13:57:44;;;;;;;;;;;5.00;99.90;;;;;;5006569;28;19913;-74
2023/12/22 14:00:18;;;;;;;;;;;4.90;99.90;;;;;;5007101;28;20009;-75
2023/12/22 14:02:51;;;;;;;;;;;4.90;99.90;;;;;;5006566;28;19972;-76
2023/12/22 14:05:19;;;;;;;;;;;4.80;99.90;;;;;;5006255;28;19929;-76
2023/12/22 14:07:45;;;;;;;;;;;4.80;99.90;;;;;;4991441;28;19913;-75
2023/12/22 14:10:11;;;;;;;;;;;4.80;99.90;;;;;;4992305;28;19910;-76
2023/12/22 14:12:40;;;;;;;;;;;4.70;99.90;;;;;;4993166;28;19924;-76
2023/12/22 14:15:06;;;;;;;;;;;4.70;99.90;;;;;;4996102;28;19912;-76
2023/12/22 14:17:31;;;;;;;;;;;4.50;99.90;;;;;;4996895;28;19909;-76
2023/12/22 14:19:57;;;;;;;;;;;4.60;99.90;;;;;;4994325;28;19906;-75
2023/12/22 14:23:36;;;;;;;2.60;0.70;;;4.60;99.90;;;;;;5087275;28;20422;-75